Terminal Aerodrome Forecast
Issued by NWS Raleigh/Durham, NC

Home | Current Version | Previous Version | Text Only | Print | Product List | Glossary On
Versions: 1 2 3 4 5 6 7 8 9 10 11 12 13 14 15 16 17 18 19 20 21 22 23 24 25 26 27 28 29 30 31 32 33 34 35 36 37 38 39 40 41 42 43 44 45 46
000
FTUS42 KRAH 021131
TAFRDU
TAF
KRDU 021131Z 0212/0312 22005KT 6SM BR BKN007 BKN250
      TEMPO 0212/0213 SCT007 SCT030 BKN250
     FM021330 22009KT P6SM BKN012
     FM021530 22012KT P6SM VCSH FEW035 SCT120 BKN250
      TEMPO 0218/0222 VRB15G30KT 3SM -TSRA SCT020 BKN045CB OVC120
     FM030800 20009KT 6SM BR VCSH BKN009 BKN150=

USA.gov is the U.S. government's official web portal to all federal, state and local government web resources and services.